Time;durP1;ratioP1;P1;durP2;ratioP2;P2;SDS_P1;SDS_P2;PMS_P1;PMS_P2;Temp;Humidity;BMP_temperature;BMP_pressure;BME280_temperature;BME280_humidity;BME280_pressure;Samples;Min_cycle;Max_cycle;Signal;HPM_P1;HPM_P2
2023/10/06 00:01:50;;;;;;;7.80;3.30;;;;;;;12.75;100.00;102340.75;5093019;28;20031;-70
2023/10/06 00:04:16;;;;;;;9.27;4.50;;;;;;;12.60;100.00;102340.06;5094328;28;20267;-70
2023/10/06 00:06:43;;;;;;;9.27;4.35;;;;;;;12.54;100.00;102340.88;5079535;28;20024;-70
2023/10/06 00:09:48;;;;;;;10.48;4.20;;;;;;;12.51;100.00;102342.09;5075526;28;20035;-70
2023/10/06 00:12:07;;;;;;;10.52;4.47;;;;;;;12.53;100.00;102345.47;5073845;28;20131;-72
2023/10/06 00:14:48;;;;;;;14.27;3.30;;;;;;;12.68;100.00;102344.47;5075073;28;20087;-70
2023/10/06 00:17:19;;;;;;;8.88;4.72;;;;;;;12.54;100.00;102344.41;5081366;28;20051;-70
2023/10/06 00:19:46;;;;;;;11.10;4.25;;;;;;;12.57;100.00;102341.28;5076805;28;20043;-70
2023/10/06 00:22:18;;;;;;;13.68;4.60;;;;;;;12.55;100.00;102337.94;5095283;28;20032;-70
2023/10/06 00:24:50;;;;;;;11.23;4.30;;;;;;;12.48;100.00;102342.50;5095046;28;20537;-69
2023/10/06 00:27:24;;;;;;;9.75;4.07;;;;;;;12.51;100.00;102341.25;5094273;28;20043;-70
2023/10/06 00:29:56;;;;;;;10.20;4.70;;;;;;;12.47;100.00;102343.56;5090262;28;20032;-70
2023/10/06 00:32:28;;;;;;;8.68;4.65;;;;;;;12.48;100.00;102347.94;5074977;28;20452;-70
2023/10/06 00:35:07;;;;;;;10.80;4.13;;;;;;;12.46;100.00;102344.59;5073381;28;20120;-70
2023/10/06 00:37:35;;;;;;;7.45;2.80;;;;;;;12.64;100.00;102352.19;5084411;28;20519;-70
2023/10/06 00:40:00;;;;;;;10.90;4.40;;;;;;;12.47;100.00;102343.56;5093427;28;20035;-70
2023/10/06 00:42:27;;;;;;;9.75;4.55;;;;;;;12.43;100.00;102338.72;5093573;28;20028;-70
2023/10/06 00:44:53;;;;;;;10.90;4.40;;;;;;;12.43;100.00;102338.72;5094250;28;20395;-70
2023/10/06 00:47:20;;;;;;;8.52;4.03;;;;;;;12.34;100.00;102336.16;5093951;28;20032;-71
2023/10/06 00:49:46;;;;;;;13.27;4.70;;;;;;;12.28;100.00;102330.72;5092505;28;20028;-71
2023/10/06 00:52:12;;;;;;;13.77;4.50;;;;;;;12.31;100.00;102330.31;5094313;28;20433;-70
2023/10/06 00:54:40;;;;;;;11.52;4.10;;;;;;;12.27;100.00;102329.03;5094827;28;20031;-70
2023/10/06 00:57:08;;;;;;;8.63;4.60;;;;;;;12.30;100.00;102334.88;5093751;28;20378;-70
2023/10/06 00:59:37;;;;;;;8.23;4.50;;;;;;;12.26;100.00;102333.63;5094352;28;20529;-70
2023/10/06 01:02:11;;;;;;;12.88;4.70;;;;;;;12.22;100.00;102321.50;5090696;28;20028;-71
2023/10/06 01:04:43;;;;;;;7.90;3.00;;;;;;;12.43;100.00;102323.28;5092998;28;20032;-70
2023/10/06 01:07:11;;;;;;;11.15;4.22;;;;;;;12.27;100.00;102312.75;5093366;28;20108;-70
2023/10/06 01:09:37;;;;;;;12.32;4.68;;;;;;;12.29;100.00;102307.94;5094183;28;20028;-70
2023/10/06 01:12:06;;;;;;;8.63;3.80;;;;;;;12.29;100.00;102310.66;5091781;28;20047;-70
2023/10/06 01:14:34;;;;;;;10.50;4.40;;;;;;;12.29;100.00;102308.78;5094345;28;20043;-70
2023/10/06 01:17:18;;;;;;;10.80;4.32;;;;;;;12.25;100.00;102301.25;5093096;28;20378;-70
2023/10/06 01:19:47;;;;;;;9.23;4.25;;;;;;;12.26;100.00;102302.91;5094137;28;20089;-70
2023/10/06 01:22:24;;;;;;;11.10;4.80;;;;;;;12.33;100.00;102301.09;5093840;28;20122;-70
2023/10/06 01:24:53;;;;;;;11.57;4.35;;;;;;;12.27;100.00;102300.00;5093970;28;20089;-70
2023/10/06 01:27:19;;;;;;;12.43;4.68;;;;;;;12.26;100.00;102301.06;5082826;28;20380;-70
2023/10/06 01:29:45;;;;;;;9.88;4.13;;;;;;;12.22;100.00;102303.31;5092217;28;20035;-70
2023/10/06 01:32:10;;;;;;;8.82;4.05;;;;;;;12.24;100.00;102300.41;5093708;28;20032;-70
2023/10/06 01:34:39;;;;;;;9.50;4.55;;;;;;;12.21;100.00;102304.38;5092487;28;20122;-70
2023/10/06 01:37:06;;;;;;;8.02;4.47;;;;;;;12.20;100.00;102301.88;5092622;28;20243;-70
2023/10/06 01:39:34;;;;;;;11.63;4.65;;;;;;;12.23;100.00;102302.28;5092627;28;20118;-70
2023/10/06 01:42:04;;;;;;;10.98;3.22;;;;;;;12.32;100.00;102297.53;5093497;28;20038;-70
2023/10/06 01:44:32;;;;;;;14.00;4.57;;;;;;;12.17;100.00;102296.84;5093631;28;20459;-70
2023/10/06 01:46:57;;;;;;;8.25;4.10;;;;;;;12.14;100.00;102289.06;5091604;28;20023;-70
2023/10/06 01:49:23;;;;;;;11.10;4.20;;;;;;;12.16;100.00;102295.16;5074018;28;20468;-70
2023/10/06 01:51:53;;;;;;;11.07;4.80;;;;;;;12.11;100.00;102282.19;5074178;28;20436;-70
2023/10/06 01:54:19;;;;;;;9.90;4.57;;;;;;;12.16;100.00;102284.28;5072993;28;20028;-70
2023/10/06 01:56:48;;;;;;;10.55;4.78;;;;;;;12.13;100.00;102279.28;5072638;28;20496;-70
2023/10/06 01:59:16;;;;;;;9.73;4.38;;;;;;;12.14;100.00;102280.94;5073118;28;20040;-70
2023/10/06 02:01:43;;;;;;;12.90;4.70;;;;;;;12.13;100.00;102274.66;5070375;28;20035;-70
2023/10/06 02:04:14;;;;;;;9.70;4.55;;;;;;;12.11;100.00;102275.91;5072779;28;20059;-70
2023/10/06 02:06:47;;;;;;;8.65;2.85;;;;;;;12.26;100.00;102275.78;5075260;28;20464;-70
2023/10/06 02:09:16;;;;;;;10.27;4.82;;;;;;;12.14;100.00;102276.34;5093309;28;20046;-70
2023/10/06 02:11:43;;;;;;;10.00;5.00;;;;;;;12.12;100.00;102270.28;5091744;28;20044;-70
2023/10/06 02:14:10;;;;;;;9.88;4.68;;;;;;;12.09;100.00;102284.25;5093278;28;20032;-70
2023/10/06 02:16:36;;;;;;;10.75;4.90;;;;;;;12.03;100.00;102285.03;5092233;28;20042;-70
2023/10/06 02:19:08;;;;;;;10.73;4.65;;;;;;;12.02;100.00;102286.09;5092661;28;20028;-70
2023/10/06 02:21:47;;;;;;;10.48;4.80;;;;;;;12.01;100.00;102287.94;5093017;28;20387;-70
2023/10/06 02:24:13;;;;;;;9.68;5.00;;;;;;;12.01;100.00;102281.69;5092920;28;20027;-70
2023/10/06 02:26:38;;;;;;;11.13;4.70;;;;;;;12.03;100.00;102280.47;5090566;28;20391;-70
2023/10/06 02:29:19;;;;;;;8.82;4.80;;;;;;;12.08;100.00;102282.59;5092515;28;20031;-70
2023/10/06 02:31:45;;;;;;;9.27;4.70;;;;;;;12.06;100.00;102279.22;5090812;28;20367;-71
2023/10/06 02:34:21;;;;;;;7.55;3.10;;;;;;;12.19;100.00;102284.72;5092764;28;20039;-71
2023/10/06 02:36:46;;;;;;;9.60;4.75;;;;;;;12.02;100.00;102280.69;5090490;28;20133;-71
2023/10/06 02:39:15;;;;;;;11.98;4.80;;;;;;;12.05;100.00;102283.81;5091521;28;20020;-71
2023/10/06 02:41:41;;;;;;;7.97;3.55;;;;;;;12.17;100.00;102275.13;5092668;28;20055;-71
2023/10/06 02:44:21;;;;;;;10.50;4.03;;;;;;;12.05;100.00;102277.56;5092415;28;20100;-71
2023/10/06 02:46:50;;;;;;;9.00;2.97;;;;;;;12.14;100.00;102270.94;5091300;28;20115;-70
2023/10/06 02:49:24;;;;;;;11.48;4.70;;;;;;;12.00;100.00;102261.03;5092718;28;20043;-71
2023/10/06 02:51:50;;;;;;;11.70;4.80;;;;;;;11.93;100.00;102265.59;5090881;28;20032;-70
2023/10/06 02:56:44;;;;;;;8.27;3.20;;;;;;;12.08;100.00;102277.16;5091496;28;20383;-71
2023/10/06 02:59:21;;;;;;;11.32;4.60;;;;;;;11.91;100.00;102262.19;5091346;28;20593;-71
2023/10/06 03:01:59;;;;;;;9.95;4.40;;;;;;;11.89;100.00;102259.69;5096263;28;20024;-71
2023/10/06 03:04:26;;;;;;;10.60;4.85;;;;;;;11.82;100.00;102258.78;5115752;28;20036;-71
2023/10/06 03:06:56;;;;;;;12.20;4.75;;;;;;;11.79;100.00;102259.19;5112429;28;20573;-71
2023/10/06 03:09:43;;;;;;;11.70;4.78;;;;;;;11.78;100.00;102258.38;5096732;28;20020;-71
2023/10/06 03:14:50;;;;;;;10.05;4.93;;;;;;;11.75;100.00;102250.63;5096494;28;20524;-70
2023/10/06 03:17:18;;;;;;;10.73;4.53;;;;;;;11.70;100.00;102248.50;5094206;28;20028;-70
2023/10/06 03:19:44;;;;;;;7.35;2.90;;;;;;;11.83;100.00;102247.75;5095321;28;20091;-71
2023/10/06 03:22:17;;;;;;;9.95;4.50;;;;;;;11.67;100.00;102243.50;5096052;28;20111;-70
2023/10/06 03:24:54;;;;;;;8.40;2.78;;;;;;;11.81;100.00;102249.00;5096386;28;20028;-70
2023/10/06 03:27:22;;;;;;;9.68;3.17;;;;;;;11.82;100.00;102250.66;5095464;28;20035;-71
2023/10/06 03:30:07;;;;;;;11.25;5.07;;;;;;;11.68;100.00;102249.75;5095310;28;20028;-71
2023/10/06 03:32:35;;;;;;;10.55;4.75;;;;;;;11.67;100.00;102256.19;5096131;28;20035;-70
2023/10/06 03:36:01;;;;;;;13.98;4.93;;;;;;;11.67;100.00;102253.47;5094714;28;20028;-71
2023/10/06 03:38:08;;;;;;;9.20;4.25;;;;;;;11.67;100.00;102258.91;5081017;28;20065;-71
2023/10/06 03:40:59;;;;;;;7.32;3.28;;;;;;;11.80;100.00;102261.72;5077970;28;20028;-71
2023/10/06 03:43:33;;;;;;;10.23;4.60;;;;;;;11.69;100.00;102256.84;5075566;28;20487;-71
2023/10/06 03:46:00;;;;;;;6.45;2.97;;;;;;;11.82;100.00;102258.78;5074120;28;20032;-70
2023/10/06 03:48:29;;;;;;;11.13;4.47;;;;;;;11.67;100.00;102251.63;5075235;28;20036;-70
2023/10/06 03:50:55;;;;;;;10.68;4.82;;;;;;;11.66;100.00;102247.22;5073809;28;20025;-70
2023/10/06 03:53:21;;;;;;;8.32;4.13;;;;;;;11.65;100.00;102244.72;5074299;28;20037;-71
2023/10/06 03:55:47;;;;;;;5.15;2.80;;;;;;;11.76;100.00;102249.59;5075167;28;20038;-71
2023/10/06 03:58:16;;;;;;;8.88;4.25;;;;;;;11.62;100.00;102240.50;5088119;28;20078;-71
2023/10/06 04:00:47;;;;;;;9.57;4.45;;;;;;;11.61;100.00;102240.72;5092246;28;20020;-70
2023/10/06 04:03:14;;;;;;;7.13;3.25;;;;;;;11.74;100.00;102232.66;5074972;28;20062;-71
2023/10/06 04:05:50;;;;;;;11.70;4.38;;;;;;;11.62;100.00;102229.66;5075359;28;20104;-70
2023/10/06 04:08:22;;;;;;;4.25;2.70;;;;;;;11.68;100.00;102228.03;5088515;28;20410;-71
2023/10/06 04:10:53;;;;;;;7.22;3.22;;;;;;;11.68;100.00;102225.34;5095300;28;20024;-70
2023/10/06 04:13:20;;;;;;;9.70;4.18;;;;;;;11.57;100.00;102220.47;5095304;28;20059;-70
2023/10/06 04:15:52;;;;;;;11.55;4.43;;;;;;;11.57;100.00;102220.47;5095157;28;20028;-70
2023/10/06 04:18:21;;;;;;;5.70;2.75;;;;;;;11.65;100.00;102223.84;5079670;28;20360;-70
2023/10/06 04:20:46;;;;;;;6.43;3.10;;;;;;;11.69;100.00;102225.13;5073674;28;20033;-70
2023/10/06 04:23:13;;;;;;;9.73;4.40;;;;;;;11.55;100.00;102226.09;5075379;28;20036;-71
2023/10/06 04:25:39;;;;;;;11.98;4.60;;;;;;;11.48;100.00;102234.16;5094397;28;20173;-70
2023/10/06 04:28:07;;;;;;;8.68;4.38;;;;;;;11.51;100.00;102249.22;5094758;28;20641;-70
2023/10/06 04:30:34;;;;;;;4.80;2.58;;;;;;;11.64;100.00;102248.44;5078032;28;20522;-71
2023/10/06 04:33:00;;;;;;;7.72;2.92;;;;;;;11.63;100.00;102252.22;5073428;28;20028;-70
2023/10/06 04:35:26;;;;;;;11.90;4.55;;;;;;;11.48;100.00;102245.00;5074519;28;20036;-71
2023/10/06 04:37:52;;;;;;;7.75;3.30;;;;;;;11.62;100.00;102243.22;5073008;28;20024;-69
2023/10/06 04:40:19;;;;;;;11.65;4.38;;;;;;;11.45;100.00;102234.56;5072822;28;20036;-69
2023/10/06 04:42:47;;;;;;;11.25;4.60;;;;;;;11.44;100.00;102227.44;5074525;28;20032;-69
2023/10/06 04:45:13;;;;;;;11.48;4.72;;;;;;;11.44;100.00;102226.63;5073148;28;20139;-71
2023/10/06 04:47:42;;;;;;;6.70;2.63;;;;;;;11.56;100.00;102225.03;5074989;28;20111;-74
2023/10/06 04:50:11;;;;;;;9.35;3.05;;;;;;;11.56;100.00;102219.63;5085294;28;20055;-70
2023/10/06 04:52:40;;;;;;;9.65;4.28;;;;;;;11.42;100.00;102213.28;5094447;28;20027;-69
2023/10/06 04:55:11;;;;;;;8.70;4.25;;;;;;;11.37;100.00;102221.16;5094483;28;20035;-70
2023/10/06 04:57:37;;;;;;;5.90;2.78;;;;;;;11.53;100.00;102220.88;5093409;28;20097;-70
2023/10/06 05:00:06;;;;;;;7.72;2.75;;;;;;;11.55;100.00;102217.09;5093103;28;20032;-70
2023/10/06 05:02:34;;;;;;;9.55;4.60;;;;;;;11.41;100.00;102208.88;5088266;28;20117;-70
2023/10/06 05:05:00;;;;;;;6.07;2.45;;;;;;;11.52;100.00;102210.22;5072811;28;20453;-69
2023/10/06 05:07:25;;;;;;;8.95;4.00;;;;;;;11.38;100.00;102206.56;5073943;28;20483;-69
2023/10/06 05:09:52;;;;;;;8.40;3.88;;;;;;;11.39;100.00;102213.66;5074115;28;20059;-70
2023/10/06 05:12:18;;;;;;;9.32;4.13;;;;;;;11.37;100.00;102218.47;5085629;28;20082;-70
2023/10/06 05:14:46;;;;;;;10.23;4.10;;;;;;;11.37;100.00;102218.47;5090400;28;20424;-70
2023/10/06 05:17:16;;;;;;;10.80;4.05;;;;;;;11.39;100.00;102208.25;5076896;28;20042;-70
2023/10/06 05:19:42;;;;;;;8.18;3.92;;;;;;;11.35;100.00;102205.09;5074263;28;20032;-70
2023/10/06 05:22:07;;;;;;;10.85;4.22;;;;;;;11.37;100.00;102206.75;5073307;28;20082;-70
2023/10/06 05:24:33;;;;;;;10.07;2.95;;;;;;;11.48;100.00;102217.06;5080274;28;20081;-70
2023/10/06 05:26:58;;;;;;;9.38;2.90;;;;;;;11.49;100.00;102210.63;5092253;28;20051;-70
2023/10/06 05:29:25;;;;;;;12.30;4.63;;;;;;;11.38;100.00;102211.16;5094044;28;20031;-70
2023/10/06 05:31:50;;;;;;;9.07;3.85;;;;;;;11.38;100.00;102211.97;5094236;28;20035;-70
2023/10/06 05:34:17;;;;;;;7.75;3.65;;;;;;;11.49;100.00;102219.59;5084801;28;20078;-70
2023/10/06 05:36:43;;;;;;;9.70;4.00;;;;;;;11.38;100.00;102220.13;5078140;28;20032;-70
2023/10/06 05:39:11;;;;;;;11.30;3.95;;;;;;;11.37;100.00;102217.59;5093726;28;20110;-69
2023/10/06 05:41:39;;;;;;;5.40;2.50;;;;;;;11.46;100.00;102217.28;5093647;28;20088;-69
2023/10/06 05:44:08;;;;;;;11.13;4.20;;;;;;;11.35;100.00;102215.09;5092462;28;20763;-70
2023/10/06 05:46:34;;;;;;;8.98;3.08;;;;;;;11.47;100.00;102212.69;5092754;28;20061;-70
2023/10/06 05:49:03;;;;;;;12.98;2.75;;;;;;;11.49;100.00;102216.88;5093718;28;20119;-70
2023/10/06 05:51:29;;;;;;;9.82;3.92;;;;;;;11.40;100.00;102211.78;5093631;28;20181;-70
2023/10/06 05:53:56;;;;;;;9.13;2.95;;;;;;;11.51;100.00;102222.09;5085644;28;20032;-70
2023/10/06 05:56:23;;;;;;;9.00;4.03;;;;;;;11.42;100.00;102218.69;5073367;28;20036;-70
2023/10/06 05:58:49;;;;;;;10.02;4.07;;;;;;;11.39;100.00;102219.09;5092165;28;20387;-70
2023/10/06 06:01:18;;;;;;;8.20;2.53;;;;;;;11.51;100.00;102225.63;5090897;28;20028;-70
2023/10/06 06:03:46;;;;;;;9.65;2.95;;;;;;;11.55;100.00;102222.53;5093194;28;20089;-69
2023/10/06 06:06:14;;;;;;;6.05;2.65;;;;;;;11.56;100.00;102213.38;5092151;28;20063;-69
2023/10/06 06:08:43;;;;;;;9.05;3.95;;;;;;;11.43;100.00;102214.09;5092270;28;20031;-70
2023/10/06 06:11:09;;;;;;;10.45;4.15;;;;;;;11.39;100.00;102213.66;5093065;28;20459;-70
2023/10/06 06:13:38;;;;;;;9.85;4.43;;;;;;;11.41;100.00;102222.44;5091705;28;20044;-69
2023/10/06 06:16:05;;;;;;;16.83;4.60;;;;;;;11.44;100.00;102215.78;5090101;28;20039;-70
2023/10/06 06:18:31;;;;;;;14.15;4.40;;;;;;;11.43;100.00;102220.38;5090591;28;20491;-70
2023/10/06 06:20:56;;;;;;;9.38;2.67;;;;;;;11.54;100.00;102219.00;5092562;28;20028;-70
2023/10/06 06:23:22;;;;;;;9.10;4.00;;;;;;;11.45;100.00;102218.28;5092794;28;20111;-70
2023/10/06 06:25:47;;;;;;;9.52;4.25;;;;;;;11.48;100.00;102227.91;5092794;28;20031;-70
2023/10/06 06:28:14;;;;;;;12.32;3.80;;;;;;;11.47;100.00;102232.50;5075227;28;20097;-70
2023/10/06 06:30:40;;;;;;;5.70;2.70;;;;;;;11.59;100.00;102229.25;5072759;28;20035;-70
2023/10/06 06:33:17;;;;;;;11.48;4.72;;;;;;;11.45;100.00;102234.56;5070816;28;20039;-69
2023/10/06 06:35:43;;;;;;;5.93;2.67;;;;;;;11.63;100.00;102235.94;5072594;28;20030;-70
2023/10/06 06:38:12;;;;;;;7.15;2.42;;;;;;;11.62;100.00;102235.09;5080778;28;20483;-70
2023/10/06 06:40:38;;;;;;;9.55;4.43;;;;;;;11.51;100.00;102231.06;5072287;28;20040;-70
2023/10/06 06:43:05;;;;;;;9.18;4.07;;;;;;;11.53;100.00;102226.28;5072427;28;20491;-70
2023/10/06 06:45:36;;;;;;;10.70;4.43;;;;;;;11.53;100.00;102229.00;5072540;28;20029;-70
2023/10/06 06:48:02;;;;;;;10.50;4.28;;;;;;;11.57;100.00;102231.31;5085385;28;20491;-75
2023/10/06 06:50:28;;;;;;;9.05;4.28;;;;;;;11.52;100.00;102235.47;5091390;28;20119;-75
2023/10/06 06:52:54;;;;;;;7.35;4.15;;;;;;;11.57;100.00;102228.59;5091372;28;20240;-71
2023/10/06 06:55:20;;;;;;;10.52;4.20;;;;;;;11.58;100.00;102230.25;5090108;28;20039;-70
2023/10/06 06:57:50;;;;;;;5.28;2.78;;;;;;;11.68;100.00;102236.19;5092670;28;20361;-71
2023/10/06 07:00:21;;;;;;;9.75;4.07;;;;;;;11.59;100.00;102235.50;5079154;28;20038;-71
2023/10/06 07:02:50;;;;;;;8.82;4.10;;;;;;;11.60;100.00;102226.31;5071155;28;20020;-73
2023/10/06 07:05:17;;;;;;;5.85;2.47;;;;;;;11.72;100.00;102225.78;5081901;28;20039;-71
2023/10/06 07:07:43;;;;;;;4.88;2.40;;;;;;;11.73;100.00;102224.72;5092254;28;20021;-71
2023/10/06 07:10:14;;;;;;;10.13;4.35;;;;;;;11.64;100.00;102227.63;5091986;28;20028;-69
2023/10/06 07:12:43;;;;;;;12.77;4.70;;;;;;;11.71;100.00;102222.22;5092317;28;20051;-69
2023/10/06 07:15:17;;;;;;;10.68;4.63;;;;;;;11.73;100.00;102232.88;5090188;28;20036;-69
2023/10/06 07:17:55;;;;;;;8.05;3.28;;;;;;;11.82;100.00;102221.69;5090079;28;20035;-69
2023/10/06 07:20:24;;;;;;;9.73;4.25;;;;;;;11.79;100.00;102229.34;5091022;28;20501;-70
2023/10/06 07:22:52;;;;;;;13.32;2.58;;;;;;;11.90;100.00;102234.25;5085251;28;20028;-72
2023/10/06 07:25:18;;;;;;;10.32;4.32;;;;;;;11.83;100.00;102236.06;5081071;28;20039;-69
2023/10/06 07:27:46;;;;;;;8.20;4.40;;;;;;;11.87;100.00;102235.47;5092030;28;20028;-71
2023/10/06 07:30:14;;;;;;;14.30;4.63;;;;;;;11.91;100.00;102230.47;5092144;28;20024;-70
2023/10/06 07:32:44;;;;;;;3.22;2.35;;;;;;;12.03;100.00;102233.50;5088739;28;20024;-70
2023/10/06 07:35:11;;;;;;;8.93;3.58;;;;;;;12.10;100.00;102237.09;5077653;28;20840;-69
2023/10/06 07:37:37;;;;;;;10.52;4.50;;;;;;;12.07;100.00;102237.50;5091888;28;20028;-69
2023/10/06 07:40:04;;;;;;;8.70;3.08;;;;;;;12.16;100.00;102238.16;5091814;28;20024;-69
2023/10/06 07:42:29;;;;;;;13.20;4.50;;;;;;;12.18;100.00;102239.66;5089747;28;20483;-69
2023/10/06 07:44:55;;;;;;;12.00;4.63;;;;;;;12.23;100.00;102244.47;5091346;28;20032;-69
2023/10/06 07:47:24;;;;;;;14.38;4.15;;;;;;;12.30;100.00;102247.19;5090840;28;20040;-70
2023/10/06 07:49:50;;;;;;;8.18;2.70;;;;;;;12.40;100.00;102253.91;5095548;28;20508;-70
2023/10/06 07:52:17;;;;;;;10.57;4.32;;;;;;;12.43;100.00;102258.13;5094242;28;20036;-70
2023/10/06 07:54:42;;;;;;;3.13;1.67;;;;;;;12.54;100.00;102252.09;5095347;28;20093;-70
2023/10/06 07:57:10;;;;;;;16.60;4.72;;;;;;;12.56;100.00;102263.59;5095028;28;20028;-71
2023/10/06 07:59:36;;;;;;;11.20;4.35;;;;;;;12.66;100.00;102274.06;5094505;28;20081;-70
2023/10/06 08:02:01;;;;;;;7.45;2.65;;;;;;;12.71;100.00;102271.59;5092693;28;20530;-70
2023/10/06 08:04:26;;;;;;;11.18;4.20;;;;;;;12.78;100.00;102277.03;5093521;28;20032;-71
2023/10/06 08:06:52;;;;;;;6.35;2.28;;;;;;;12.89;100.00;102270.16;5095501;28;20031;-70
2023/10/06 08:09:19;;;;;;;12.80;4.70;;;;;;;12.92;100.00;102261.59;5095138;28;20452;-69
2023/10/06 08:11:45;;;;;;;8.23;4.05;;;;;;;13.01;100.00;102251.38;5095073;28;20507;-68
2023/10/06 08:14:13;;;;;;;12.75;4.72;;;;;;;13.05;100.00;102250.75;5078039;28;20033;-70
2023/10/06 08:16:39;;;;;;;9.35;4.20;;;;;;;13.15;100.00;102253.06;5074811;28;20031;-70
2023/10/06 08:19:05;;;;;;;6.68;3.03;;;;;;;13.23;100.00;102250.13;5074501;28;20040;-73
2023/10/06 08:21:31;;;;;;;22.02;5.03;;;;;;;13.35;100.00;102255.00;5082334;28;20091;-75
2023/10/06 08:23:56;;;;;;;8.57;4.55;;;;;;;13.44;100.00;102260.00;5083842;28;20069;-73
2023/10/06 08:26:21;;;;;;;11.38;4.55;;;;;;;13.57;100.00;102258.31;5094866;28;20055;-71
2023/10/06 08:28:47;;;;;;;6.95;2.35;;;;;;;13.62;100.00;102262.06;5093646;28;20035;-72
2023/10/06 08:31:16;;;;;;;11.52;4.63;;;;;;;13.79;100.00;102262.47;5091437;28;20530;-72
2023/10/06 08:33:41;;;;;;;11.75;4.32;;;;;;;13.85;100.00;102258.06;5095049;28;20078;-72
2023/10/06 08:36:10;;;;;;;11.02;4.40;;;;;;;13.91;100.00;102264.56;5094862;28;20438;-72
2023/10/06 08:38:36;;;;;;;9.20;4.00;;;;;;;13.95;100.00;102249.44;5095220;28;20032;-73
2023/10/06 08:41:02;;;;;;;7.72;4.03;;;;;;;14.03;100.00;102259.28;5093217;28;20035;-73
2023/10/06 08:43:27;;;;;;;9.10;4.68;;;;;;;14.09;100.00;102258.44;5093581;28;20467;-72
2023/10/06 08:45:55;;;;;;;12.70;4.68;;;;;;;14.15;100.00;102254.84;5094977;28;20024;-72
2023/10/06 08:48:25;;;;;;;9.85;3.85;;;;;;;14.25;100.00;102252.53;5094701;28;20028;-71
2023/10/06 08:50:53;;;;;;;11.50;4.22;;;;;;;14.34;100.00;102258.53;5090839;28;20036;-72
2023/10/06 08:53:23;;;;;;;22.55;5.10;;;;;;;14.41;100.00;102253.09;5093689;28;20031;-69
2023/10/06 08:55:48;;;;;;;13.63;4.68;;;;;;;14.51;100.00;102256.19;5089310;28;20371;-70
2023/10/06 08:58:14;;;;;;;12.52;5.05;;;;;;;14.57;100.00;102257.19;5092039;28;20028;-72
2023/10/06 09:00:43;;;;;;;11.52;4.50;;;;;;;14.69;100.00;102264.50;5089355;28;20055;-72
2023/10/06 09:03:11;;;;;;;12.07;4.82;;;;;;;14.68;100.00;102260.09;5074151;28;20025;-77
2023/10/06 09:05:43;;;;;;;10.60;4.65;;;;;;;14.69;100.00;102260.94;5074350;28;20028;-70
2023/10/06 09:08:17;;;;;;;9.20;4.47;;;;;;;14.71;100.00;102270.56;5074069;28;20032;-69
2023/10/06 09:10:49;;;;;;;13.43;4.78;;;;;;;14.76;100.00;102277.25;5084699;28;20038;-71
2023/10/06 09:13:17;;;;;;;10.15;4.45;;;;;;;14.82;100.00;102273.66;5094182;28;20399;-71
2023/10/06 09:16:03;;;;;;;9.75;4.50;;;;;;;14.86;100.00;102272.16;5094316;28;20439;-71
2023/10/06 09:18:29;;;;;;;13.77;4.70;;;;;;;14.95;100.00;102270.84;5109051;28;20540;-74
2023/10/06 09:21:10;;;;;;;13.20;4.60;;;;;;;14.97;100.00;102274.16;5088952;28;20043;-70
2023/10/06 09:23:39;;;;;;;13.77;4.75;;;;;;;15.00;100.00;102264.72;5082701;28;20035;-69
2023/10/06 09:26:08;;;;;;;14.67;4.77;;;;;;;15.02;100.00;102262.59;5089380;28;20063;-69
2023/10/06 09:28:46;;;;;;;15.77;5.10;;;;;;;15.10;100.00;102254.19;5094090;28;20278;-71
2023/10/06 09:31:12;;;;;;;12.98;4.30;;;;;;;15.22;100.00;102257.84;5077673;28;20028;-71
2023/10/06 09:33:37;;;;;;;11.85;4.90;;;;;;;15.29;100.00;102246.88;5073432;28;20078;-72
2023/10/06 09:36:08;;;;;;;12.40;4.55;;;;;;;15.33;100.00;102247.28;5073692;28;20020;-69
2023/10/06 09:38:47;;;;;;;11.80;4.95;;;;;;;15.37;100.00;102252.06;5076301;28;20042;-69
2023/10/06 09:41:13;;;;;;;15.68;5.03;;;;;;;15.40;100.00;102240.72;5092420;28;20110;-74
2023/10/06 09:43:40;;;;;;;13.23;4.68;;;;;;;15.45;100.00;102252.84;5080206;28;20075;-70
2023/10/06 09:46:14;;;;;;;10.45;4.07;;;;;;;15.50;100.00;102239.38;5090790;28;20127;-71
2023/10/06 09:48:42;;;;;;;11.75;4.57;;;;;;;15.55;100.00;102253.16;5091977;28;20020;-71
2023/10/06 09:51:09;;;;;;;10.48;4.25;;;;;;;15.59;100.00;102233.41;5093514;28;20032;-71
2023/10/06 09:53:38;;;;;;;13.90;4.10;;;;;;;15.66;100.00;102238.78;5079221;28;20052;-72
2023/10/06 09:56:11;;;;;;;11.40;3.78;;;;;;;15.69;100.00;102240.25;5073404;28;20040;-72
2023/10/06 09:58:38;;;;;;;11.40;4.05;;;;;;;15.76;100.00;102233.66;5073252;28;20060;-70
2023/10/06 10:01:04;;;;;;;11.20;4.10;;;;;;;15.86;100.00;102232.31;5078858;28;20035;-70
2023/10/06 10:03:33;;;;;;;11.38;3.83;;;;;;;15.89;100.00;102245.53;5093150;28;20081;-70
2023/10/06 10:06:04;;;;;;;12.85;3.70;;;;;;;15.86;100.00;102238.63;5075897;28;20041;-70
2023/10/06 10:08:33;;;;;;;12.35;4.18;;;;;;;15.86;100.00;102243.25;5072878;28;20103;-68
2023/10/06 10:11:03;;;;;;;9.13;3.60;;;;;;;15.87;100.00;102239.47;5085402;28;20115;-71
2023/10/06 10:13:54;;;;;;;13.38;4.32;;;;;;;15.86;100.00;102235.88;5093160;28;20047;-70
2023/10/06 10:16:28;;;;;;;10.20;3.72;;;;;;;15.83;100.00;102247.25;5091848;28;20040;-69
2023/10/06 10:19:07;;;;;;;15.18;4.07;;;;;;;15.81;100.00;102235.75;5082325;28;20107;-71
2023/10/06 10:21:34;;;;;;;12.77;3.60;;;;;;;15.78;100.00;102236.19;5092905;28;20024;-73
2023/10/06 10:24:05;;;;;;;10.80;3.78;;;;;;;15.83;100.00;102233.59;5078864;28;20033;-74
2023/10/06 10:26:34;;;;;;;8.63;3.60;;;;;;;15.86;100.00;102230.44;5072648;28;20024;-73
2023/10/06 10:29:17;;;;;;;10.30;3.75;;;;;;;15.93;100.00;102230.38;5073158;28;20025;-74
2023/10/06 10:31:52;;;;;;;8.00;3.70;;;;;;;15.98;100.00;102230.50;5072727;28;20039;-71
2023/10/06 10:34:21;;;;;;;12.45;4.05;;;;;;;15.99;100.00;102231.34;5083352;28;20034;-71
2023/10/06 10:37:04;;;;;;;10.23;4.68;;;;;;;15.99;100.00;102234.06;5092958;28;20024;-70
2023/10/06 10:39:45;;;;;;;12.05;4.30;;;;;;;16.01;100.00;102221.03;5092667;28;20028;-69
2023/10/06 10:42:12;;;;;;;9.90;4.20;;;;;;;16.01;100.00;102234.69;5092662;28;20032;-70
2023/10/06 10:44:39;;;;;;;10.15;4.05;;;;;;;16.04;100.00;102215.94;5091596;28;20099;-70
2023/10/06 10:47:06;;;;;;;14.95;4.35;;;;;;;16.05;100.00;102214.88;5088603;28;20461;-70
2023/10/06 10:49:32;;;;;;;10.85;3.83;;;;;;;16.14;100.00;102212.69;5092159;28;20036;-70
2023/10/06 10:52:09;;;;;;;11.50;4.03;;;;;;;16.24;100.00;102206.66;5092709;28;20135;-69
2023/10/06 10:54:39;;;;;;;10.73;3.83;;;;;;;16.32;100.00;102214.56;5092338;28;20028;-69
2023/10/06 10:57:24;;;;;;;11.95;3.58;;;;;;;16.37;100.00;102209.22;5092414;28;20094;-74
2023/10/06 11:02:44;;;;;;;11.65;4.18;;;;;;;16.54;100.00;102216.78;5088887;28;20036;-73
2023/10/06 11:05:11;;;;;;;17.40;4.30;;;;;;;16.59;100.00;102219.66;5092263;28;20111;-71
2023/10/06 11:07:37;;;;;;;12.77;4.38;;;;;;;16.56;100.00;102210.03;5091273;28;20058;-77
2023/10/06 11:10:04;;;;;;;11.35;4.35;;;;;;;16.59;100.00;102215.03;5092223;28;20028;-74
2023/10/06 11:12:30;;;;;;;9.25;4.20;;;;;;;16.64;100.00;102228.81;5086073;28;20052;-71
2023/10/06 11:15:31;;;;;;;10.25;3.78;;;;;;;16.61;100.00;102228.47;5090973;28;20051;-69
2023/10/06 11:17:55;;;;;;;11.05;4.25;;;;;;;16.63;100.00;102218.13;5089258;28;20028;-69
2023/10/06 11:20:25;;;;;;;12.75;4.50;;;;;;;16.61;100.00;102212.06;5092149;28;20103;-70
2023/10/06 11:22:56;;;;;;;21.17;5.50;;;;;;;16.60;100.00;102213.94;5092683;28;20050;-71
2023/10/06 11:25:28;;;;;;;10.75;4.38;;;;;;;16.58;100.00;102209.81;5096148;28;20035;-71
2023/10/06 11:28:04;;;;;;;14.25;4.70;;;;;;;16.54;100.00;102211.31;5095940;28;20059;-70
2023/10/06 11:30:33;;;;;;;8.60;4.00;;;;;;;16.55;100.00;102213.81;5092977;28;20107;-70